메인 페이지
METAR-TAF:

METAR-TAF

공항 :

테드 스티븐스 앵커리지 국제공항

앵커리지, 알래스카, 미국

위도: 61-10-28N, 경도: 149-59-46W, 고도: 44m

현재 날씨관측

예보는 33분 전, 21:53시(UTC)에 발표되었습니다.
무풍
온도 -12°C
습도 92%
기압 1009 hPa
시정: 1.6km
고도 200ft 상공 흐림
약한눈, 박무

METAR: PANC 202153Z 00000KT 1SM R07R/P6000FT -SN BR OVC002 M12/M13 A2981 RMK AO2 SFC VIS 2 SNB30 SLP097 P0000 T11171133 $

시각: 13:26 (22:26 UTC)

예보

예보는 1 시간 24분 전, 21:02시(UTC)에 발표되었습니다.
예보 대상 시간: 20일 21시부터 21일 24시까지 (UTC)
여러 방향의 바람 3kt
시정: 1.6km
고도 200ft 상공 구름 많음
박무
일시적
20일 21시부터 20일 24시까지 (UTC)
시정: 4.8km
고도 200ft 상공 구름 보통
고도 700ft 상공 구름 많음
박무
21일 0000시부터 (UTC)
여러 방향의 바람 3kt
시정: 10km
고도 500ft 상공 구름 조금
고도 1200ft 상공 구름 보통
일시적
21일 00시부터 21일 03시까지 (UTC)
고도 1200ft 상공 구름 많음
21일 1200시부터 (UTC)
7kt
시정: 10km
고도 10000ft 상공 구름 조금
고도 20000ft 상공 구름 보통
21일 1800시부터 (UTC)
6kt
시정: 10km
고도 5000ft 상공 구름 조금
고도 8000ft 상공 구름 많음

TAF: PANC 202102Z 2021/2124 VRB03KT 1SM BR BKN002 TEMPO 2021/2024 3SM BR SCT002 BKN007 FM210000 VRB03KT P6SM FEW005 SCT012 TEMPO 2100/2103 BKN012 FM211200 36007KT P6SM FEW100 SCT200 FM211800 01006KT P6SM FEW050 BKN080

4,000개 이상의 공항 관측 자료 및 예보 (METAR 및 TAF 보고).

지도상에서 검색 가능한 기상관측소가 노란 점과 빨간 점으로 표시되어 있습니다.

기상관측소 명을 보려면 표시 위로 마우스를 이동하세요.

날씨 관측과 예보를 보려면 클릭하세요.

지도 변경 : 확대하려면 엑스 표시가 있는 녹색 버튼, 축소하려면 빼기 표시가 있는 녹색 버튼, 다음 페이지의 지도를 보려면 녹색 화살표를 클릭하세요.


METAR-TAF: